Time;durP1;ratioP1;P1;durP2;ratioP2;P2;SDS_P1;SDS_P2;PMS_P1;PMS_P2;Temp;Humidity;BMP_temperature;BMP_pressure;BME280_temperature;BME280_humidity;BME280_pressure;Samples;Min_cycle;Max_cycle;Signal;HPM_P1;HPM_P2
2022/09/02 00:04:54;;;;;;;1.33;1.23;;;14.70;99.90;;;;;;4926541;29;20487;-77
2022/09/02 00:07:45;;;;;;;1.47;1.37;;;14.70;99.90;;;;;;4928560;29;20475;-76
2022/09/02 00:14:09;;;;;;;1.17;1.17;;;14.70;99.90;;;;;;4930191;29;20547;-76
2022/09/02 00:17:07;;;;;;;1.40;1.30;;;14.70;99.90;;;;;;4929477;29;20488;-76
2022/09/02 00:20:18;;;;;;;1.03;1.03;;;14.60;99.90;;;;;;4930025;29;20484;-76
2022/09/02 00:23:19;;;;;;;1.40;1.30;;;14.60;99.90;;;;;;4929324;29;20456;-76
2022/09/02 00:29:39;;;;;;;1.40;1.30;;;14.60;99.90;;;;;;4926554;29;20484;-77
2022/09/02 00:35:43;;;;;;;1.50;1.40;;;14.60;99.90;;;;;;4902218;29;20459;-76
2022/09/02 00:38:54;;;;;;;;;;;;;;;;;;;;;
2022/09/02 00:42:07;;;;;;;1.40;1.30;;;14.60;99.90;;;;;;4927702;29;20479;-76
2022/09/02 00:45:22;;;;;;;1.20;1.20;;;14.50;99.90;;;;;;4928356;29;20456;-77
2022/09/02 00:48:25;;;;;;;1.40;1.30;;;14.50;99.90;;;;;;4928213;29;20480;-77
2022/09/02 00:51:39;;;;;;;1.03;1.03;;;14.40;99.90;;;;;;4932526;29;20495;-76
2022/09/02 00:54:56;;;;;;;2.00;1.23;;;14.50;99.90;;;;;;4928432;29;20547;-77
2022/09/02 00:58:12;;;;;;;1.40;1.30;;;14.40;99.90;;;;;;4926376;29;20839;-76
2022/09/02 01:01:15;;;;;;;1.43;1.33;;;14.40;99.90;;;;;;4931102;29;20463;-76
2022/09/02 01:04:18;;;;;;;2.00;1.40;;;14.40;99.90;;;;;;4930299;28;20943;-76
2022/09/02 01:07:34;;;;;;;1.30;1.20;;;14.30;99.90;;;;;;4927586;28;20489;-77
2022/09/02 01:10:55;;;;;;;1.43;1.30;;;14.30;99.90;;;;;;4927455;29;20472;-76
2022/09/02 01:13:54;;;;;;;1.37;1.27;;;14.30;99.90;;;;;;4929362;29;20557;-76
2022/09/02 01:21:09;;;;;;;1.40;1.30;;;14.20;99.90;;;;;;4928232;29;20472;-77
2022/09/02 01:24:04;;;;;;;1.50;1.40;;;14.20;99.90;;;;;;4928397;29;20464;-76
2022/09/02 01:27:16;;;;;;;1.53;1.43;;;14.20;99.90;;;;;;4932621;28;20599;-76
2022/09/02 01:30:41;;;;;;;1.37;1.27;;;14.20;99.90;;;;;;4929095;29;20618;-76
2022/09/02 01:33:41;;;;;;;1.30;1.30;;;14.20;99.90;;;;;;4931500;29;20944;-76
2022/09/02 01:37:04;;;;;;;1.73;1.13;;;14.20;99.90;;;;;;4937415;29;20483;-76
2022/09/02 01:40:22;;;;;;;1.50;1.40;;;14.20;99.90;;;;;;4931608;29;20968;-76
2022/09/02 01:43:33;;;;;;;1.50;1.40;;;14.20;99.90;;;;;;4929150;29;20546;-76
2022/09/02 01:46:43;;;;;;;1.50;1.27;;;14.20;99.90;;;;;;4929886;29;20973;-76
2022/09/02 01:49:54;;;;;;;1.70;1.30;;;14.20;99.90;;;;;;4927654;29;21019;-77
2022/09/02 01:53:09;;;;;;;1.63;1.40;;;14.20;99.90;;;;;;4930979;29;20470;-77
2022/09/02 01:56:17;;;;;;;1.40;1.30;;;14.10;99.90;;;;;;4929759;29;20551;-76
2022/09/02 02:02:36;;;;;;;1.20;1.20;;;14.20;99.90;;;;;;4924171;29;20486;-76
2022/09/02 02:08:56;;;;;;;3.10;1.60;;;14.10;99.90;;;;;;4926910;29;20591;-77
2022/09/02 02:12:01;;;;;;;1.47;1.37;;;14.10;99.90;;;;;;4922151;29;20554;-76
2022/09/02 02:15:06;;;;;;;1.30;1.20;;;14.10;99.90;;;;;;4930275;29;20951;-78
2022/09/02 02:18:18;;;;;;;1.23;1.23;;;14.00;99.90;;;;;;4931206;29;20452;-77
2022/09/02 02:21:20;;;;;;;1.40;1.30;;;14.00;99.90;;;;;;4930270;29;20973;-76
2022/09/02 02:24:48;;;;;;;1.30;1.20;;;14.00;99.90;;;;;;4929542;29;20999;-77
2022/09/02 02:28:13;;;;;;;1.40;1.30;;;14.00;99.90;;;;;;4927287;29;21392;-77
2022/09/02 02:38:05;;;;;;;1.40;1.30;;;13.90;99.90;;;;;;4931423;29;20538;-77
2022/09/02 02:41:31;;;;;;;1.43;1.37;;;13.90;99.90;;;;;;4934094;29;21433;-77
2022/09/02 02:48:29;;;;;;;1.30;1.20;;;13.80;99.90;;;;;;4933038;29;20460;-77
2022/09/02 02:51:34;;;;;;;1.83;1.33;;;13.70;99.90;;;;;;4932495;29;20463;-76
2022/09/02 02:54:36;;;;;;;2.20;1.50;;;13.70;99.90;;;;;;4932485;29;20541;-77
2022/09/02 02:57:45;;;;;;;1.40;1.30;;;13.70;99.90;;;;;;4932492;29;20499;-77
2022/09/02 03:00:46;;;;;;;1.53;1.30;;;13.70;99.90;;;;;;4912611;29;20952;-77
2022/09/02 03:04:10;;;;;;;2.40;1.20;;;13.60;99.90;;;;;;4933599;29;20487;-76
2022/09/02 03:07:16;;;;;;;2.30;1.50;;;13.60;99.90;;;;;;4929149;29;20484;-77
2022/09/02 03:10:23;;;;;;;1.93;1.83;;;13.60;99.90;;;;;;4931122;29;20476;-77
2022/09/02 03:13:36;;;;;;;1.40;1.30;;;13.60;99.90;;;;;;4933673;29;20455;-76
2022/09/02 03:16:45;;;;;;;1.53;1.43;;;13.50;99.90;;;;;;4921241;29;20987;-76
2022/09/02 03:19:43;;;;;;;1.50;1.40;;;13.50;99.90;;;;;;4932296;29;20949;-76
2022/09/02 03:22:56;;;;;;;1.40;1.27;;;13.50;99.90;;;;;;4930907;29;20534;-77
2022/09/02 03:26:05;;;;;;;1.30;1.20;;;13.50;99.90;;;;;;4932702;29;21078;-77
2022/09/02 03:29:25;;;;;;;1.40;1.30;;;13.50;99.90;;;;;;4931730;29;20990;-77
2022/09/02 03:32:49;;;;;;;;;;;;;;;;;;;;;
2022/09/02 03:35:47;;;;;;;1.53;1.43;;;13.40;99.90;;;;;;4930297;29;20475;-77
2022/09/02 03:38:59;;;;;;;1.53;1.43;;;13.40;99.90;;;;;;4930147;28;20514;-76
2022/09/02 03:42:15;;;;;;;1.40;1.30;;;13.40;99.90;;;;;;4930192;29;20454;-77
2022/09/02 03:45:17;;;;;;;1.30;1.20;;;13.30;99.90;;;;;;4934357;29;20448;-77
2022/09/02 03:48:28;;;;;;;3.30;1.50;;;13.30;99.90;;;;;;4930623;29;20558;-77
2022/09/02 03:54:52;;;;;;;2.83;1.60;;;13.20;99.90;;;;;;4932458;29;20543;-77
2022/09/02 03:57:47;;;;;;;1.30;1.20;;;13.20;99.90;;;;;;4931958;29;20579;-77
2022/09/02 04:00:51;;;;;;;1.10;1.10;;;13.10;99.90;;;;;;4932261;28;20458;-77
2022/09/02 04:04:05;;;;;;;3.80;1.30;;;13.10;99.90;;;;;;4932653;29;20467;-76
2022/09/02 04:07:05;;;;;;;1.70;1.60;;;13.10;99.90;;;;;;4930595;29;20524;-76
2022/09/02 04:10:17;;;;;;;1.50;1.40;;;13.00;99.90;;;;;;4930992;29;20546;-76
2022/09/02 04:13:35;;;;;;;1.67;1.57;;;13.00;99.90;;;;;;4925860;29;20452;-77
2022/09/02 04:16:40;;;;;;;1.83;1.73;;;12.90;99.90;;;;;;4929076;29;20487;-77
2022/09/02 04:23:12;;;;;;;1.80;1.50;;;12.90;99.90;;;;;;4929214;29;20464;-77
2022/09/02 04:26:20;;;;;;;1.23;1.13;;;12.80;99.90;;;;;;4934284;28;21047;-76
2022/09/02 04:29:25;;;;;;;2.00;1.90;;;12.80;99.90;;;;;;4931544;29;20467;-76
2022/09/02 04:32:28;;;;;;;1.57;1.40;;;12.80;99.90;;;;;;4918408;29;20476;-77
2022/09/02 04:36:02;;;;;;;1.73;1.60;;;12.70;99.90;;;;;;4926546;28;20471;-76
2022/09/02 04:39:12;;;;;;;2.07;1.70;;;12.70;99.90;;;;;;4910257;29;20992;-76
2022/09/02 04:42:08;;;;;;;1.63;1.53;;;12.70;99.90;;;;;;4928800;29;20448;-76
2022/09/02 04:45:17;;;;;;;1.63;1.53;;;12.70;99.90;;;;;;4928136;29;21441;-76
2022/09/02 04:48:25;;;;;;;1.60;1.50;;;12.70;99.90;;;;;;4927715;28;20460;-76
2022/09/02 04:51:37;;;;;;;1.80;1.70;;;12.70;99.90;;;;;;4925628;29;20483;-76
2022/09/02 04:54:34;;;;;;;1.67;1.43;;;12.70;99.90;;;;;;4924735;29;20471;-75
2022/09/02 04:57:38;;;;;;;2.10;1.90;;;12.70;99.90;;;;;;4928982;29;20853;-74
2022/09/02 05:00:42;;;;;;;1.87;1.77;;;12.70;99.90;;;;;;4926123;28;20603;-76
2022/09/02 05:04:06;;;;;;;2.00;1.80;;;12.70;99.90;;;;;;4913482;29;20539;-76
2022/09/02 05:07:24;;;;;;;1.90;1.80;;;12.70;99.90;;;;;;4924310;29;20483;-75
2022/09/02 05:10:40;;;;;;;2.77;1.80;;;12.70;99.90;;;;;;4920838;29;20484;-75
2022/09/02 05:13:43;;;;;;;1.90;1.70;;;12.80;99.90;;;;;;4926537;29;20455;-75
2022/09/02 05:16:54;;;;;;;3.53;2.00;;;12.80;99.90;;;;;;4921994;29;20526;-76
2022/09/02 05:20:08;;;;;;;2.70;1.90;;;12.80;99.90;;;;;;4921586;28;20475;-76
2022/09/02 05:23:17;;;;;;;2.40;2.00;;;12.90;99.90;;;;;;4919075;29;20460;-76
2022/09/02 05:26:10;;;;;;;2.27;1.77;;;12.90;99.90;;;;;;4913198;29;20480;-76
2022/09/02 05:29:00;;;;;;;3.47;2.03;;;13.00;99.90;;;;;;4917224;29;20452;-76
2022/09/02 05:31:59;;;;;;;6.00;2.67;;;13.00;99.90;;;;;;4922726;29;20575;-76
2022/09/02 05:34:49;;;;;;;2.23;1.80;;;13.10;99.90;;;;;;4922881;29;20467;-77
2022/09/02 05:37:40;;;;;;;2.47;2.00;;;13.10;99.90;;;;;;4926101;28;21083;-78
2022/09/02 05:40:30;;;;;;;2.10;1.87;;;13.10;99.90;;;;;;4925427;29;20463;-78
2022/09/02 05:43:25;;;;;;;2.63;1.77;;;13.20;99.90;;;;;;4923667;29;20514;-78
2022/09/02 05:46:17;;;;;;;2.90;1.93;;;13.20;99.90;;;;;;4923484;29;20484;-78
2022/09/02 05:49:20;;;;;;;1.73;1.63;;;13.30;99.90;;;;;;4924589;29;20459;-76
2022/09/02 05:52:12;;;;;;;10.70;3.13;;;13.30;99.90;;;;;;4925319;29;20574;-76
2022/09/02 05:55:11;;;;;;;3.10;2.17;;;13.30;99.90;;;;;;4926018;29;20578;-76
2022/09/02 05:58:02;;;;;;;2.93;2.13;;;13.30;99.90;;;;;;4927740;29;20988;-76
2022/09/02 06:00:54;;;;;;;2.30;2.10;;;13.40;99.90;;;;;;4923578;29;20452;-78
2022/09/02 06:03:42;;;;;;;2.90;2.33;;;13.40;99.90;;;;;;4914566;29;20472;-76
2022/09/02 06:06:33;;;;;;;5.03;2.00;;;13.50;99.90;;;;;;4907839;29;20472;-76
2022/09/02 06:09:23;;;;;;;2.40;2.20;;;13.50;99.90;;;;;;4923061;29;20535;-76
2022/09/02 06:12:13;;;;;;;2.23;1.93;;;13.50;99.90;;;;;;4922599;29;20534;-76
2022/09/02 06:15:02;;;;;;;2.10;1.90;;;13.60;99.90;;;;;;4923926;29;21046;-76
2022/09/02 06:17:53;;;;;;;2.87;1.77;;;13.60;99.90;;;;;;4926049;28;20452;-77
2022/09/02 06:20:41;;;;;;;2.40;1.90;;;13.60;99.90;;;;;;4922442;29;20464;-76
2022/09/02 06:23:30;;;;;;;2.23;1.90;;;13.70;99.90;;;;;;4930619;29;20456;-76
2022/09/02 06:26:18;;;;;;;2.30;1.97;;;13.70;99.90;;;;;;4930842;28;20491;-76
2022/09/02 06:29:08;;;;;;;3.47;2.20;;;13.80;99.90;;;;;;4926410;29;20811;-76
2022/09/02 06:31:58;;;;;;;2.43;1.80;;;13.80;99.90;;;;;;4925890;29;20482;-76
2022/09/02 06:34:48;;;;;;;2.70;1.87;;;13.90;99.90;;;;;;4921031;28;20460;-76
2022/09/02 06:37:36;;;;;;;3.10;1.93;;;13.90;99.90;;;;;;4920309;29;20511;-76
2022/09/02 06:40:24;;;;;;;1.90;1.80;;;14.00;99.90;;;;;;4922713;29;20968;-76
2022/09/02 06:43:15;;;;;;;3.43;1.43;;;14.00;99.90;;;;;;4924576;29;20468;-76
2022/09/02 06:46:14;;;;;;;1.60;1.50;;;14.10;99.90;;;;;;4930000;29;20604;-76
2022/09/02 06:49:03;;;;;;;1.80;1.60;;;14.10;99.90;;;;;;4914965;29;21116;-76
2022/09/02 06:51:55;;;;;;;2.43;1.70;;;14.20;99.90;;;;;;4920317;29;20503;-77
2022/09/02 06:54:45;;;;;;;1.40;1.30;;;14.20;99.90;;;;;;4922395;29;20510;-76
2022/09/02 06:57:34;;;;;;;1.83;1.60;;;14.30;99.90;;;;;;4929295;29;20476;-77
2022/09/02 07:00:22;;;;;;;1.40;1.30;;;14.30;99.90;;;;;;4924896;28;21252;-77
2022/09/02 07:06:17;;;;;;;1.40;1.30;;;14.50;99.90;;;;;;4918656;29;20498;-77
2022/09/02 07:09:10;;;;;;;1.50;1.40;;;14.50;99.90;;;;;;4920906;29;21269;-77
2022/09/02 07:12:00;;;;;;;1.50;1.40;;;14.60;99.90;;;;;;4922194;29;20566;-77
2022/09/02 07:14:53;;;;;;;1.47;1.33;;;14.70;99.90;;;;;;4926576;29;20467;-76
2022/09/02 07:17:41;;;;;;;1.93;1.30;;;14.70;99.90;;;;;;4924778;29;21210;-76
2022/09/02 07:20:29;;;;;;;1.73;1.60;;;14.80;99.90;;;;;;4918683;29;20468;-77
2022/09/02 07:23:19;;;;;;;1.90;1.20;;;14.90;99.90;;;;;;4920679;29;20664;-77
2022/09/02 07:26:15;;;;;;;1.50;1.40;;;15.00;99.90;;;;;;4923969;29;20510;-77
2022/09/02 07:29:07;;;;;;;1.60;1.50;;;15.00;99.90;;;;;;4917178;29;20464;-77
2022/09/02 07:32:01;;;;;;;1.57;1.47;;;15.10;99.90;;;;;;4923457;29;20554;-77
2022/09/02 07:34:49;;;;;;;1.90;1.70;;;15.20;99.90;;;;;;4922396;29;20478;-77
2022/09/02 07:37:40;;;;;;;2.23;1.40;;;15.30;99.90;;;;;;4923125;29;20480;-77
2022/09/02 07:40:31;;;;;;;2.67;1.47;;;15.30;99.90;;;;;;4926542;29;20551;-77
2022/09/02 07:43:21;;;;;;;1.83;1.63;;;15.40;99.90;;;;;;4915172;29;20488;-77
2022/09/02 07:46:09;;;;;;;2.03;1.40;;;15.50;99.90;;;;;;4922812;28;20479;-77
2022/09/02 07:48:58;;;;;;;1.63;1.30;;;15.60;99.90;;;;;;4917199;28;20456;-77
2022/09/02 07:51:48;;;;;;;1.13;1.03;;;15.70;99.90;;;;;;4921557;29;21380;-77
2022/09/02 07:54:40;;;;;;;1.30;1.20;;;15.80;99.90;;;;;;4920769;29;20471;-76
2022/09/02 07:57:28;;;;;;;1.70;1.60;;;15.90;99.90;;;;;;4919538;29;20478;-76
2022/09/02 08:00:19;;;;;;;2.10;1.30;;;16.00;99.90;;;;;;4922323;29;20526;-77
2022/09/02 08:03:09;;;;;;;1.90;1.33;;;16.10;99.90;;;;;;4920885;29;20979;-77
2022/09/02 08:05:59;;;;;;;1.40;1.30;;;16.20;99.90;;;;;;4909902;29;20522;-77
2022/09/02 08:08:47;;;;;;;1.40;1.30;;;16.30;99.90;;;;;;4922929;29;20456;-77
2022/09/02 08:11:39;;;;;;;1.57;1.40;;;16.30;99.90;;;;;;4924831;29;20902;-77
2022/09/02 08:14:28;;;;;;;2.30;1.20;;;16.50;99.90;;;;;;4922675;29;20448;-77
2022/09/02 08:17:18;;;;;;;1.20;1.10;;;16.50;99.90;;;;;;4925491;28;20538;-77
2022/09/02 08:20:11;;;;;;;1.37;1.13;;;16.60;99.90;;;;;;4931787;29;20958;-76
2022/09/02 08:23:05;;;;;;;1.27;1.17;;;16.80;99.90;;;;;;4926614;29;20603;-77
2022/09/02 08:26:06;;;;;;;2.47;1.60;;;16.90;99.90;;;;;;4922924;29;20484;-76
2022/09/02 08:28:54;;;;;;;1.93;1.10;;;17.00;99.90;;;;;;4930012;28;20459;-76
2022/09/02 08:31:42;;;;;;;2.57;1.03;;;17.00;99.90;;;;;;4929339;29;20459;-76
2022/09/02 08:34:32;;;;;;;1.17;1.07;;;17.10;99.90;;;;;;4927394;29;20455;-76
2022/09/02 08:37:21;;;;;;;1.40;1.10;;;17.20;99.90;;;;;;4926790;29;20623;-76
2022/09/02 08:40:16;;;;;;;1.60;1.07;;;17.30;99.90;;;;;;4927972;29;20460;-76
2022/09/02 08:43:20;;;;;;;1.40;1.30;;;17.40;99.90;;;;;;4917391;29;20572;-76
2022/09/02 08:46:15;;;;;;;1.53;1.43;;;17.50;99.90;;;;;;4927146;29;20888;-77
2022/09/02 08:49:08;;;;;;;1.33;1.23;;;17.60;99.90;;;;;;4927397;29;20451;-76
2022/09/02 08:52:01;;;;;;;1.20;1.10;;;17.70;99.90;;;;;;4923346;29;20480;-76
2022/09/02 08:54:54;;;;;;;1.30;1.20;;;17.80;99.90;;;;;;4928064;29;20488;-76
2022/09/02 08:57:44;;;;;;;1.07;1.00;;;17.90;99.90;;;;;;4930759;28;20604;-76
2022/09/02 09:00:40;;;;;;;1.43;1.20;;;18.00;99.90;;;;;;4927484;29;20500;-76
2022/09/02 09:03:34;;;;;;;1.50;1.40;;;18.00;99.90;;;;;;4927783;29;21434;-76
2022/09/02 09:06:33;;;;;;;1.00;1.00;;;18.10;99.90;;;;;;4925314;29;20492;-76
2022/09/02 09:09:32;;;;;;;1.50;1.40;;;18.20;99.90;;;;;;4922005;29;20474;-76
2022/09/02 09:12:31;;;;;;;1.70;1.40;;;18.30;99.90;;;;;;4922529;29;21040;-75
2022/09/02 09:15:30;;;;;;;1.10;1.10;;;18.40;99.90;;;;;;4923720;29;20460;-76
2022/09/02 09:18:24;;;;;;;2.90;1.40;;;18.40;99.90;;;;;;4914466;29;20491;-76
2022/09/02 09:21:13;;;;;;;1.43;1.20;;;18.40;99.90;;;;;;4919269;28;20475;-75
2022/09/02 09:24:06;;;;;;;4.20;1.60;;;18.50;99.90;;;;;;4907637;29;20562;-75
2022/09/02 09:26:58;;;;;;;1.40;1.30;;;18.60;99.90;;;;;;4914472;29;20519;-76
2022/09/02 09:29:47;;;;;;;2.50;1.50;;;18.70;99.90;;;;;;4913117;29;20460;-75
2022/09/02 09:32:40;;;;;;;3.37;1.20;;;18.80;99.90;;;;;;4923230;29;20486;-75
2022/09/02 09:35:47;;;;;;;1.33;1.23;;;18.90;99.90;;;;;;4925273;29;20630;-75
2022/09/02 09:38:37;;;;;;;2.10;1.57;;;19.00;99.90;;;;;;4920290;29;20472;-76
2022/09/02 09:41:28;;;;;;;3.70;1.33;;;19.10;99.90;;;;;;4920737;29;20579;-75
2022/09/02 09:44:43;;;;;;;1.20;1.10;;;19.10;99.90;;;;;;4919842;29;20471;-75
2022/09/02 09:47:31;;;;;;;1.80;1.30;;;19.30;99.90;;;;;;4919559;29;20475;-75
2022/09/02 09:50:20;;;;;;;2.70;1.40;;;19.40;99.90;;;;;;4911581;29;20462;-75
2022/09/02 09:53:19;;;;;;;4.03;1.37;;;19.40;99.90;;;;;;4916275;29;20514;-75
2022/09/02 09:56:26;;;;;;;1.47;1.20;;;19.40;99.90;;;;;;4916942;28;20483;-75
2022/09/02 09:59:39;;;;;;;1.63;1.23;;;19.50;99.90;;;;;;4918652;29;20983;-76
2022/09/02 10:02:28;;;;;;;1.40;1.13;;;19.60;99.90;;;;;;4919981;28;21112;-76
2022/09/02 10:05:32;;;;;;;1.50;1.40;;;19.70;99.90;;;;;;4920484;29;20971;-76
2022/09/02 10:08:23;;;;;;;1.40;1.30;;;19.80;99.90;;;;;;4911771;29;20542;-75
2022/09/02 10:11:21;;;;;;;2.90;1.50;;;19.80;99.90;;;;;;4908015;29;22334;-76
2022/09/02 10:14:11;;;;;;;1.70;1.30;;;19.90;99.90;;;;;;4916782;29;20620;-76
2022/09/02 10:17:11;;;;;;;1.37;1.20;;;19.90;99.90;;;;;;4917695;29;20876;-76
2022/09/02 10:20:11;;;;;;;1.53;1.20;;;20.00;99.90;;;;;;4915655;29;20554;-76
2022/09/02 10:23:11;;;;;;;1.50;1.40;;;20.10;99.90;;;;;;4918481;29;20541;-76
2022/09/02 10:26:10;;;;;;;1.60;1.50;;;20.20;99.90;;;;;;4916883;28;20468;-76
2022/09/02 10:29:29;;;;;;;4.70;1.70;;;20.20;99.90;;;;;;4918652;29;20459;-76
2022/09/02 10:32:27;;;;;;;1.37;1.27;;;20.30;99.90;;;;;;4916887;28;21221;-76
2022/09/02 10:35:21;;;;;;;1.40;1.30;;;20.30;99.90;;;;;;4926363;28;20456;-76
2022/09/02 10:38:34;;;;;;;1.40;1.30;;;20.40;99.90;;;;;;4928585;28;20523;-76
2022/09/02 10:41:41;;;;;;;1.13;1.13;;;20.40;99.90;;;;;;4927037;28;20467;-76
2022/09/02 10:44:40;;;;;;;1.40;1.13;;;20.40;99.90;;;;;;4932419;29;20610;-76
2022/09/02 10:47:36;;;;;;;1.20;1.10;;;20.50;99.90;;;;;;4933872;28;21294;-76
2022/09/02 10:50:34;;;;;;;3.93;1.60;;;20.60;99.90;;;;;;4931501;28;20491;-76
2022/09/02 10:54:09;;;;;;;1.90;1.40;;;20.70;99.90;;;;;;4922804;29;20634;-76
2022/09/02 10:57:04;;;;;;;1.60;1.20;;;20.80;99.90;;;;;;4918323;28;20563;-76
2022/09/02 11:00:01;;;;;;;1.37;1.30;;;21.00;99.90;;;;;;4925287;29;20980;-72
2022/09/02 11:02:55;;;;;;;1.13;1.10;;;21.10;99.90;;;;;;4925493;29;20456;-72
2022/09/02 11:05:50;;;;;;;1.57;1.23;;;21.20;99.90;;;;;;4920995;29;20524;-73
2022/09/02 11:08:44;;;;;;;1.47;1.30;;;21.30;99.90;;;;;;4916933;29;22661;-76
2022/09/02 11:11:39;;;;;;;1.40;1.30;;;21.50;99.90;;;;;;4924470;29;20972;-76
2022/09/02 11:14:33;;;;;;;1.43;1.33;;;21.60;99.90;;;;;;4924267;29;20679;-76
2022/09/02 11:17:28;;;;;;;1.30;1.30;;;21.60;99.90;;;;;;4912431;29;20468;-76
2022/09/02 11:20:29;;;;;;;0.90;0.90;;;21.50;99.90;;;;;;4925209;29;20590;-77
2022/09/02 11:23:22;;;;;;;1.73;1.17;;;21.50;99.90;;;;;;4920341;29;20499;-77
2022/09/02 11:26:16;;;;;;;3.30;1.20;;;21.60;99.90;;;;;;4925239;29;20479;-77
2022/09/02 11:29:11;;;;;;;1.33;1.30;;;21.70;99.90;;;;;;4922388;29;20456;-77
2022/09/02 11:32:10;;;;;;;2.50;1.30;;;21.80;99.90;;;;;;4916283;29;20574;-78
2022/09/02 11:35:05;;;;;;;1.20;1.10;;;21.90;99.90;;;;;;4912428;29;20578;-77
2022/09/02 11:38:01;;;;;;;2.10;1.27;;;22.00;99.90;;;;;;4917701;29;20459;-76
2022/09/02 11:41:11;;;;;;;2.00;1.30;;;22.00;99.90;;;;;;4916752;29;20483;-77
2022/09/02 11:44:48;;;;;;;1.63;1.20;;;22.10;99.90;;;;;;4917389;29;20487;-77
2022/09/02 11:48:12;;;;;;;1.40;1.30;;;22.20;99.90;;;;;;4906375;29;20507;-78
2022/09/02 11:51:18;;;;;;;2.80;1.20;;;22.30;99.90;;;;;;4927227;29;20456;-81
2022/09/02 11:54:11;;;;;;;2.80;1.20;;;22.40;99.90;;;;;;4925009;28;20476;-78
2022/09/02 11:57:05;;;;;;;1.30;1.20;;;22.40;99.90;;;;;;4926229;28;20479;-79
2022/09/02 12:00:07;;;;;;;2.37;1.20;;;22.50;99.90;;;;;;4928997;29;20549;-78
2022/09/02 12:03:13;;;;;;;1.20;1.10;;;22.60;99.90;;;;;;4929472;29;20691;-78
2022/09/02 12:06:22;;;;;;;1.53;1.10;;;22.40;99.90;;;;;;4927904;29;21533;-78
2022/09/02 12:09:12;;;;;;;1.47;1.30;;;22.40;99.90;;;;;;4929881;29;20467;-78
2022/09/02 12:12:00;;;;;;;2.53;1.33;;;22.50;99.90;;;;;;4932804;29;20520;-78
2022/09/02 12:15:13;;;;;;;1.20;1.20;;;22.70;99.90;;;;;;4938996;28;20488;-77
2022/09/02 12:18:28;;;;;;;1.50;1.40;;;22.90;99.90;;;;;;4938713;29;20456;-77
2022/09/02 12:21:19;;;;;;;1.40;1.20;;;23.00;99.90;;;;;;4941195;28;20468;-77
2022/09/02 12:24:20;;;;;;;1.30;1.20;;;23.00;99.90;;;;;;4934613;29;20565;-78
2022/09/02 12:27:23;;;;;;;1.63;1.20;;;23.10;99.90;;;;;;4925262;29;20491;-81
2022/09/02 12:30:12;;;;;;;1.07;1.00;;;23.20;99.90;;;;;;4928736;29;20488;-76
2022/09/02 12:33:11;;;;;;;1.30;1.20;;;23.30;99.90;;;;;;4920495;29;20463;-77
2022/09/02 12:36:04;;;;;;;2.77;1.47;;;23.30;99.90;;;;;;4924641;29;20521;-77
2022/09/02 12:38:53;;;;;;;1.97;1.27;;;23.30;99.90;;;;;;4927761;28;20460;-77
2022/09/02 12:41:44;;;;;;;1.40;1.30;;;23.40;99.90;;;;;;4926778;29;20552;-77
2022/09/02 12:44:43;;;;;;;1.30;1.20;;;23.50;99.90;;;;;;4916627;29;20607;-77
2022/09/02 12:47:49;;;;;;;1.10;1.10;;;23.40;99.90;;;;;;4924613;29;20530;-77
2022/09/02 12:50:56;;;;;;;6.63;1.40;;;23.40;99.90;;;;;;4921322;29;20464;-77
2022/09/02 12:53:49;;;;;;;2.80;1.30;;;23.40;99.90;;;;;;4924908;29;20484;-77
2022/09/02 12:56:47;;;;;;;1.67;1.10;;;23.50;99.90;;;;;;4925772;29;20491;-77
2022/09/02 12:59:41;;;;;;;1.47;1.07;;;23.60;99.90;;;;;;4929932;29;20456;-77
2022/09/02 13:02:42;;;;;;;1.30;1.23;;;23.70;99.90;;;;;;4929661;29;20565;-77
2022/09/02 13:05:43;;;;;;;1.20;1.10;;;23.70;99.90;;;;;;4929380;29;20463;-77
2022/09/02 13:09:07;;;;;;;1.57;1.23;;;23.60;99.90;;;;;;4927824;29;20559;-77
2022/09/02 13:12:29;;;;;;;1.37;1.20;;;23.60;99.90;;;;;;4919740;29;20479;-75
2022/09/02 13:15:35;;;;;;;2.70;1.20;;;23.80;99.90;;;;;;4917091;29;20495;-77
2022/09/02 13:18:54;;;;;;;1.30;1.20;;;24.00;99.90;;;;;;4914951;29;20601;-76
2022/09/02 13:22:06;;;;;;;1.27;1.10;;;24.20;99.90;;;;;;4915520;29;21075;-76
2022/09/02 13:25:46;;;;;;;2.63;1.20;;;24.20;99.90;;;;;;4925548;29;20829;-76
2022/09/02 13:28:59;;;;;;;1.03;0.90;;;24.20;99.90;;;;;;4921362;29;20497;-76
2022/09/02 13:32:01;;;;;;;1.30;1.27;;;24.10;99.90;;;;;;4919055;29;20608;-76
2022/09/02 13:34:53;;;;;;;1.37;1.00;;;24.10;99.90;;;;;;4923504;28;21109;-75
2022/09/02 13:37:53;;;;;;;1.30;1.20;;;24.00;99.90;;;;;;4911034;29;20539;-77
2022/09/02 13:40:44;;;;;;;1.20;1.10;;;24.20;99.90;;;;;;4920165;29;20463;-77
2022/09/02 13:43:33;;;;;;;1.37;1.27;;;24.30;99.90;;;;;;4924066;29;20615;-78
2022/09/02 13:46:23;;;;;;;1.20;1.07;;;24.20;99.90;;;;;;4924693;29;20579;-78
2022/09/02 13:49:24;;;;;;;0.93;0.90;;;24.10;99.90;;;;;;4924248;29;20493;-78
2022/09/02 13:52:21;;;;;;;1.67;1.00;;;24.30;99.90;;;;;;4928034;29;21375;-77
2022/09/02 13:55:33;;;;;;;2.00;1.07;;;25.00;99.90;;;;;;4925408;29;20476;-78
2022/09/02 13:58:31;;;;;;;2.10;1.20;;;25.80;99.90;;;;;;4923608;29;20843;-78
2022/09/02 14:01:23;;;;;;;1.40;1.30;;;26.40;99.90;;;;;;4923672;29;20516;-78
2022/09/02 14:04:16;;;;;;;1.13;1.10;;;26.90;99.90;;;;;;4928042;29;20514;-78
2022/09/02 14:07:07;;;;;;;2.00;1.33;;;26.70;99.90;;;;;;4923080;29;20571;-78
2022/09/02 14:09:59;;;;;;;1.47;1.30;;;26.50;99.90;;;;;;4925678;29;20969;-78
2022/09/02 14:12:48;;;;;;;2.40;1.40;;;26.20;99.90;;;;;;4924753;28;20471;-78
2022/09/02 14:15:37;;;;;;;1.10;1.00;;;25.90;99.90;;;;;;4923698;29;20613;-78
2022/09/02 14:18:25;;;;;;;2.17;1.00;;;25.80;99.90;;;;;;4927592;29;21033;-78
2022/09/02 14:21:18;;;;;;;1.10;1.10;;;25.60;99.90;;;;;;4927710;29;20470;-78
2022/09/02 14:24:12;;;;;;;1.47;1.37;;;25.50;99.90;;;;;;4927582;29;20551;-79
2022/09/02 14:27:00;;;;;;;1.30;1.20;;;25.30;99.90;;;;;;4925064;29;21283;-79
2022/09/02 14:29:53;;;;;;;1.63;1.10;;;25.10;99.90;;;;;;4925516;29;20554;-78
2022/09/02 14:32:41;;;;;;;2.20;1.37;;;24.90;99.90;;;;;;4922962;29;20503;-78
2022/09/02 14:35:30;;;;;;;2.70;1.30;;;24.70;99.90;;;;;;4928169;29;20598;-78
2022/09/02 14:38:23;;;;;;;1.20;1.20;;;24.60;99.90;;;;;;4929732;29;21505;-78
2022/09/02 14:41:19;;;;;;;2.10;1.17;;;24.50;99.90;;;;;;4930440;29;21126;-78
2022/09/02 14:44:12;;;;;;;1.30;1.20;;;24.60;99.90;;;;;;4930551;29;20526;-78
2022/09/02 14:47:03;;;;;;;1.23;1.00;;;24.70;99.90;;;;;;4927109;29;20467;-78
2022/09/02 14:49:54;;;;;;;1.43;1.23;;;25.00;99.90;;;;;;4929626;29;20464;-78
2022/09/02 14:52:49;;;;;;;1.47;1.20;;;25.20;99.90;;;;;;4933648;29;20479;-78
2022/09/02 14:55:51;;;;;;;1.77;1.20;;;25.40;99.90;;;;;;4930792;29;20523;-78
2022/09/02 14:58:40;;;;;;;2.57;1.40;;;25.20;99.90;;;;;;4927550;29;20462;-78
2022/09/02 15:01:29;;;;;;;1.40;1.30;;;25.10;99.90;;;;;;4928331;29;20460;-78
2022/09/02 15:04:18;;;;;;;2.10;1.57;;;24.90;99.90;;;;;;4922875;29;20460;-78
2022/09/02 15:07:06;;;;;;;1.40;1.30;;;24.70;99.90;;;;;;4925103;28;20528;-77
2022/09/02 15:09:55;;;;;;;2.47;1.53;;;24.70;99.90;;;;;;4927476;29;20464;-78
2022/09/02 15:12:47;;;;;;;2.30;1.43;;;24.70;99.90;;;;;;4926395;29;20461;-78
2022/09/02 15:15:40;;;;;;;1.83;1.50;;;24.50;99.90;;;;;;4923820;29;20488;-78
2022/09/02 15:18:28;;;;;;;1.50;1.40;;;24.50;99.90;;;;;;4922472;29;20463;-78
2022/09/02 15:21:18;;;;;;;1.53;1.40;;;24.40;99.90;;;;;;4923840;29;21466;-77
2022/09/02 15:24:07;;;;;;;1.80;1.40;;;24.40;99.90;;;;;;4924159;29;21083;-77
2022/09/02 15:26:57;;;;;;;1.83;1.73;;;24.30;99.90;;;;;;4925046;29;20475;-78
2022/09/02 15:29:46;;;;;;;1.70;1.20;;;24.20;99.90;;;;;;4925403;29;20463;-78
2022/09/02 15:32:35;;;;;;;2.83;1.50;;;24.20;99.90;;;;;;4925129;29;20554;-78
2022/09/02 15:35:24;;;;;;;2.93;1.47;;;24.10;99.90;;;;;;4925868;29;20483;-78
2022/09/02 15:38:12;;;;;;;1.17;1.17;;;24.00;99.90;;;;;;4936411;29;20551;-78
2022/09/02 15:41:15;;;;;;;2.00;1.30;;;23.90;99.90;;;;;;4932923;29;20551;-78
2022/09/02 15:44:06;;;;;;;1.30;1.23;;;23.80;99.90;;;;;;4932465;29;20595;-78
2022/09/02 15:46:55;;;;;;;3.90;1.33;;;23.70;99.90;;;;;;4924177;29;23672;-78
2022/09/02 15:49:44;;;;;;;2.13;1.30;;;23.70;99.90;;;;;;4921451;28;20468;-78
2022/09/02 15:52:34;;;;;;;1.57;1.47;;;23.60;99.90;;;;;;4931449;29;20556;-78
2022/09/02 15:55:22;;;;;;;1.30;1.20;;;23.60;99.90;;;;;;4920614;29;20684;-78
2022/09/02 15:58:19;;;;;;;1.40;1.30;;;23.50;99.90;;;;;;4925593;28;20467;-78
2022/09/02 16:01:07;;;;;;;1.63;1.40;;;23.40;99.90;;;;;;4926560;29;20515;-77
2022/09/02 16:03:56;;;;;;;1.40;1.30;;;23.30;99.90;;;;;;4924610;29;20967;-78
2022/09/02 16:06:48;;;;;;;1.30;1.20;;;23.30;99.90;;;;;;4923357;29;20571;-78
2022/09/02 16:09:37;;;;;;;2.30;1.30;;;23.20;99.90;;;;;;4923141;28;23495;-78
2022/09/02 16:12:26;;;;;;;1.70;1.60;;;23.20;99.90;;;;;;4927511;29;20460;-78
2022/09/02 16:15:16;;;;;;;2.27;1.97;;;23.20;99.90;;;;;;4927776;29;20490;-78
2022/09/02 16:18:04;;;;;;;1.40;1.30;;;23.20;99.90;;;;;;4926148;29;20520;-78